createdAt,value
2018-10-05T00:00:04.989Z,7.00
2018-10-05T00:02:48.066Z,10.23
2018-10-05T00:05:32.790Z,7.43
2018-10-05T00:08:14.914Z,9.10
2018-10-05T00:10:57.130Z,7.67
2018-10-05T00:13:37.764Z,10.00
2018-10-05T00:16:19.400Z,7.47
2018-10-05T00:18:52.097Z,8.37
2018-10-05T00:21:25.104Z,8.00
2018-10-05T00:23:57.778Z,8.63
2018-10-05T00:26:31.107Z,11.73
2018-10-05T00:29:04.315Z,5.37
2018-10-05T00:31:36.976Z,7.37
2018-10-05T00:34:09.837Z,9.53
2018-10-05T00:36:42.483Z,9.07
2018-10-05T00:39:15.346Z,9.30
2018-10-05T00:41:48.166Z,28.93
2018-10-05T00:44:20.639Z,5.50
2018-10-05T00:46:59.486Z,7.37
2018-10-05T00:49:32.219Z,5.10
2018-10-05T00:52:04.917Z,7.97
2018-10-05T00:54:37.992Z,7.33
2018-10-05T00:57:10.700Z,5.73
2018-10-05T00:59:43.447Z,7.67
2018-10-05T01:02:16.911Z,6.67
2018-10-05T01:04:50.889Z,5.73
2018-10-05T01:07:23.687Z,9.13
2018-10-05T01:09:59.603Z,7.30
2018-10-05T01:12:36.617Z,7.03
2018-10-05T01:15:12.518Z,10.80
2018-10-05T01:17:51.709Z,7.13
2018-10-05T01:20:24.609Z,8.17
2018-10-05T01:22:57.298Z,9.63
2018-10-05T01:25:29.977Z,11.57
2018-10-05T01:28:02.701Z,5.27
2018-10-05T01:30:35.619Z,6.53
2018-10-05T01:33:08.417Z,7.90
2018-10-05T01:35:41.289Z,7.13
2018-10-05T01:38:14.142Z,6.37
2018-10-05T01:40:47.237Z,9.17
2018-10-05T01:43:20.165Z,9.28
2018-10-05T01:45:54.949Z,8.50
2018-10-05T01:48:34.585Z,12.17
2018-10-05T01:51:09.320Z,5.83
2018-10-05T01:53:42.357Z,6.37
2018-10-05T01:56:15.543Z,6.40
2018-10-05T01:58:54.662Z,5.63
2018-10-05T02:01:28.095Z,5.57
2018-10-05T02:04:01.740Z,5.20
2018-10-05T02:06:34.306Z,5.90
2018-10-05T02:09:08.380Z,5.43
2018-10-05T02:11:42.992Z,7.13
2018-10-05T02:14:16.191Z,8.90
2018-10-05T02:16:48.930Z,8.83
2018-10-05T02:19:21.753Z,6.72
2018-10-05T02:21:55.202Z,5.40
2018-10-05T02:24:28.828Z,5.57
2018-10-05T02:27:04.960Z,9.83
2018-10-05T02:29:37.986Z,6.33
2018-10-05T02:32:10.726Z,4.80
2018-10-05T02:34:44.096Z,6.17
2018-10-05T02:37:22.004Z,6.60
2018-10-05T02:39:55.087Z,5.80
2018-10-05T02:42:28.630Z,5.00
2018-10-05T02:45:01.371Z,5.63
2018-10-05T02:47:33.936Z,5.40
2018-10-05T02:50:06.694Z,4.40
2018-10-05T02:52:40.095Z,5.30
2018-10-05T02:55:20.025Z,4.93
2018-10-05T02:58:01.181Z,6.50
2018-10-05T03:00:43.399Z,4.33
2018-10-05T03:03:15.923Z,5.60
2018-10-05T03:05:48.826Z,5.17
2018-10-05T03:08:21.433Z,4.97
2018-10-05T03:10:54.260Z,6.43
2018-10-05T03:13:27.273Z,5.80
2018-10-05T03:15:59.988Z,8.00
2018-10-05T03:18:32.933Z,6.77
2018-10-05T03:21:06.003Z,6.20
2018-10-05T03:23:43.065Z,6.42
2018-10-05T03:26:16.632Z,5.70
2018-10-05T03:28:55.999Z,5.40
2018-10-05T03:31:28.936Z,4.30
2018-10-05T03:34:01.547Z,5.33
2018-10-05T03:36:38.461Z,5.43
2018-10-05T03:39:11.463Z,7.85
2018-10-05T03:41:43.962Z,4.83
2018-10-05T03:44:16.619Z,9.47
2018-10-05T03:46:49.247Z,6.67
2018-10-05T03:49:22.094Z,4.87
2018-10-05T03:51:55.129Z,5.20
2018-10-05T03:54:28.429Z,6.07
2018-10-05T03:57:03.222Z,5.40
2018-10-05T03:59:40.928Z,5.80
2018-10-05T04:02:14.312Z,5.43
2018-10-05T04:04:46.889Z,5.40
2018-10-05T04:07:19.715Z,5.37
2018-10-05T04:09:52.949Z,5.05
2018-10-05T04:12:27.011Z,4.77
2018-10-05T04:14:59.596Z,5.43
2018-10-05T04:17:32.774Z,6.50
2018-10-05T04:20:05.778Z,7.70
2018-10-05T04:22:39.103Z,5.60
2018-10-05T04:25:11.877Z,5.67
2018-10-05T04:27:44.692Z,5.60
2018-10-05T04:30:17.761Z,4.80
2018-10-05T04:32:50.488Z,6.80
2018-10-05T04:35:23.129Z,6.27
2018-10-05T04:37:56.012Z,6.03
2018-10-05T04:40:28.573Z,8.53
2018-10-05T04:43:08.944Z,7.07
2018-10-05T04:45:41.583Z,13.03
2018-10-05T04:48:14.272Z,6.27
2018-10-05T04:50:47.246Z,5.00
2018-10-05T04:53:20.030Z,5.83
2018-10-05T04:55:52.343Z,7.23
2018-10-05T04:58:25.267Z,7.03
2018-10-05T05:00:58.374Z,7.07
2018-10-05T05:03:31.190Z,6.77
2018-10-05T05:06:05.073Z,6.30
2018-10-05T05:08:38.177Z,6.50
2018-10-05T05:11:16.462Z,6.27
2018-10-05T05:13:49.132Z,6.25
2018-10-05T05:16:22.225Z,6.10
2018-10-05T05:18:54.908Z,6.90
2018-10-05T05:21:27.576Z,6.40
2018-10-05T05:23:59.951Z,7.10
2018-10-05T05:26:36.978Z,5.90
2018-10-05T05:29:09.924Z,6.85
2018-10-05T05:31:42.820Z,7.33
2018-10-05T05:34:16.232Z,9.27
2018-10-05T05:36:49.096Z,7.33
2018-10-05T05:39:22.002Z,7.07
2018-10-05T05:41:54.552Z,6.07
2018-10-05T05:44:27.343Z,7.00
2018-10-05T05:47:00.210Z,7.40
2018-10-05T05:49:33.822Z,7.60
2018-10-05T05:52:12.075Z,6.80
2018-10-05T05:54:44.822Z,5.80
2018-10-05T05:57:17.490Z,5.70
2018-10-05T05:59:50.141Z,7.03
2018-10-05T06:02:22.770Z,6.27
2018-10-05T06:04:59.620Z,6.27
2018-10-05T06:07:32.338Z,6.33
2018-10-05T06:10:05.101Z,5.50
2018-10-05T06:12:38.692Z,5.77
2018-10-05T06:15:11.415Z,6.60
2018-10-05T06:17:44.228Z,7.30
2018-10-05T06:20:16.896Z,7.63
2018-10-05T06:22:49.630Z,7.13
2018-10-05T06:25:22.412Z,7.47
2018-10-05T06:27:54.951Z,7.23
2018-10-05T06:30:27.709Z,7.50
2018-10-05T06:33:00.263Z,7.77
2018-10-05T06:35:39.069Z,7.60
2018-10-05T06:38:11.559Z,7.20
2018-10-05T06:40:44.239Z,7.20
2018-10-05T06:43:16.868Z,6.40
2018-10-05T06:45:49.681Z,6.80
2018-10-05T06:48:22.119Z,6.03
2018-10-05T06:50:54.633Z,5.90
2018-10-05T06:53:27.231Z,6.87
2018-10-05T06:55:59.805Z,5.53
2018-10-05T06:58:32.379Z,5.97
2018-10-05T07:01:05.102Z,6.07
2018-10-05T07:03:37.675Z,5.70
2018-10-05T07:06:10.367Z,5.17
2018-10-05T07:08:42.776Z,6.00
2018-10-05T07:11:15.749Z,5.90
2018-10-05T07:13:48.253Z,6.10
2018-10-05T07:16:21.110Z,6.27
2018-10-05T07:18:53.656Z,5.93
2018-10-05T07:21:26.685Z,5.90
2018-10-05T07:23:59.262Z,7.40
2018-10-05T07:26:36.581Z,6.43
2018-10-05T07:29:10.751Z,6.33
2018-10-05T07:31:44.206Z,7.37
2018-10-05T07:34:21.179Z,6.10
2018-10-05T07:36:53.996Z,6.33
2018-10-05T07:39:26.550Z,7.03
2018-10-05T07:41:59.569Z,7.87
2018-10-05T07:44:32.010Z,8.13
2018-10-05T07:47:11.224Z,7.33
2018-10-05T07:49:43.734Z,6.83
2018-10-05T07:52:16.260Z,8.30
2018-10-05T07:54:48.667Z,36.33
2018-10-05T07:57:21.542Z,85.63
2018-10-05T08:00:01.230Z,31.63
2018-10-05T08:02:33.838Z,15.20
2018-10-05T08:05:06.350Z,6.87
2018-10-05T08:07:39.146Z,6.73
2018-10-05T08:10:11.678Z,5.57
2018-10-05T08:12:44.340Z,6.10
2018-10-05T08:15:16.969Z,5.63
2018-10-05T08:17:49.529Z,5.93
2018-10-05T08:20:22.016Z,5.80
2018-10-05T08:25:49.312Z,5.93
2018-10-05T08:28:21.914Z,9.33
2018-10-05T08:31:00.619Z,17.23
2018-10-05T08:33:33.065Z,7.80
2018-10-05T08:36:05.698Z,6.87
2018-10-05T08:38:38.170Z,5.80
2018-10-05T08:41:26.118Z,6.00
2018-10-05T08:44:00.919Z,5.80
2018-10-05T08:46:34.690Z,5.87
2018-10-05T08:49:07.676Z,5.20
2018-10-05T08:51:40.629Z,6.00
2018-10-05T08:54:20.932Z,6.07
2018-10-05T08:56:53.839Z,5.70
2018-10-05T08:59:26.687Z,5.07
2018-10-05T09:01:59.115Z,5.33
2018-10-05T09:04:39.887Z,5.70
2018-10-05T09:07:22.546Z,6.03
2018-10-05T09:09:55.282Z,7.23
2018-10-05T09:12:27.739Z,5.60
2018-10-05T09:15:00.520Z,5.33
2018-10-05T09:17:34.369Z,6.70
2018-10-05T09:20:07.193Z,5.40
2018-10-05T09:22:39.721Z,4.90
2018-10-05T09:25:12.155Z,4.80
2018-10-05T09:27:44.715Z,5.23
2018-10-05T09:30:17.291Z,6.37
2018-10-05T09:32:49.829Z,5.50
2018-10-05T09:35:22.952Z,5.60
2018-10-05T09:37:55.768Z,5.60
2018-10-05T09:40:34.679Z,8.37
2018-10-05T09:43:07.208Z,6.00
2018-10-05T09:45:40.736Z,5.40
2018-10-05T09:48:13.410Z,5.20
2018-10-05T09:50:48.266Z,6.63
2018-10-05T09:53:21.877Z,6.97
2018-10-05T09:55:54.814Z,5.87
2018-10-05T09:58:27.429Z,6.53
2018-10-05T10:01:06.215Z,7.40
2018-10-05T10:03:48.119Z,11.57
2018-10-05T10:06:23.040Z,6.50
2018-10-05T10:08:55.762Z,7.67
2018-10-05T10:11:30.401Z,5.90
2018-10-05T10:14:07.853Z,6.23
2018-10-05T10:16:46.504Z,5.90
2018-10-05T10:19:22.727Z,7.70
2018-10-05T10:21:55.360Z,7.93
2018-10-05T10:24:28.455Z,7.93
2018-10-05T10:27:01.414Z,6.93
2018-10-05T10:29:33.879Z,8.60
2018-10-05T10:32:08.326Z,9.97
2018-10-05T10:34:40.885Z,11.33
2018-10-05T10:37:13.501Z,11.40
2018-10-05T10:39:51.819Z,10.33
2018-10-05T10:42:24.877Z,11.40
2018-10-05T10:45:04.440Z,11.30
2018-10-05T10:47:37.449Z,13.53
2018-10-05T10:50:10.365Z,20.97
2018-10-05T10:52:43.343Z,9.50
2018-10-05T10:55:16.490Z,11.37
2018-10-05T10:57:49.397Z,14.57
2018-10-05T11:00:21.960Z,18.53
2018-10-05T11:02:59.465Z,14.50
2018-10-05T11:05:32.064Z,23.80
2018-10-05T11:08:05.004Z,12.10
2018-10-05T11:10:37.478Z,11.83
2018-10-05T11:13:11.063Z,13.37
2018-10-05T11:15:45.571Z,12.47
2018-10-05T11:18:25.184Z,15.80
2018-10-05T11:20:57.857Z,11.33
2018-10-05T11:23:30.926Z,13.80
2018-10-05T11:26:03.549Z,13.70
2018-10-05T11:28:35.768Z,14.00
2018-10-05T11:31:08.451Z,15.13
2018-10-05T11:33:41.570Z,11.75
2018-10-05T11:36:14.214Z,14.90
2018-10-05T11:38:54.329Z,22.90
2018-10-05T11:41:29.491Z,18.37
2018-10-05T11:44:05.831Z,19.73
2018-10-05T11:46:42.755Z,16.43
2018-10-05T11:49:16.389Z,19.10
2018-10-05T11:51:49.124Z,17.50
2018-10-05T11:54:26.664Z,20.83
2018-10-05T11:57:00.710Z,19.27
2018-10-05T11:59:39.443Z,25.37
2018-10-05T12:02:12.065Z,11.27
2018-10-05T12:04:45.296Z,15.70
2018-10-05T12:07:18.247Z,12.70
2018-10-05T12:09:51.279Z,28.15
2018-10-05T12:12:29.748Z,18.73
2018-10-05T12:15:02.753Z,11.97
2018-10-05T12:17:35.317Z,16.07
2018-10-05T12:20:07.993Z,12.20
2018-10-05T12:22:40.624Z,14.90
2018-10-05T12:25:13.534Z,15.18
2018-10-05T12:27:51.731Z,12.03
2018-10-05T12:30:25.444Z,28.93
2018-10-05T12:32:59.497Z,11.13
2018-10-05T12:35:32.248Z,122.03
2018-10-05T12:38:04.848Z,12.03
2018-10-05T12:40:37.298Z,13.47
2018-10-05T12:43:09.784Z,11.27
2018-10-05T12:45:42.341Z,11.53
2018-10-05T12:48:14.976Z,9.98
2018-10-05T12:50:47.903Z,11.80
2018-10-05T12:53:20.321Z,8.30
2018-10-05T12:55:53.284Z,14.27
2018-10-05T12:58:25.801Z,9.80
2018-10-05T13:01:02.876Z,9.47
2018-10-05T13:03:35.638Z,9.80
2018-10-05T13:06:08.340Z,16.50
2018-10-05T13:08:40.961Z,9.10
2018-10-05T13:11:14.574Z,42.67
2018-10-05T13:13:48.172Z,10.60
2018-10-05T13:16:21.525Z,24.20
2018-10-05T13:18:54.303Z,10.43
2018-10-05T13:21:33.389Z,15.87
2018-10-05T13:24:06.419Z,14.40
2018-10-05T13:26:39.027Z,11.37
2018-10-05T13:29:11.537Z,10.33
2018-10-05T13:31:46.873Z,11.40
2018-10-05T13:34:19.569Z,16.47
2018-10-05T13:36:52.290Z,17.83
2018-10-05T13:39:25.121Z,10.57
2018-10-05T13:41:57.831Z,8.00
2018-10-05T13:44:46.840Z,7.90
2018-10-05T13:47:20.682Z,11.53
2018-10-05T13:49:54.279Z,10.03
2018-10-05T13:55:16.937Z,8.50
2018-10-05T13:57:56.729Z,14.60
2018-10-05T14:00:32.151Z,15.37
2018-10-05T14:03:05.151Z,20.30
2018-10-05T14:05:39.084Z,76.57
2018-10-05T14:08:18.878Z,66.03
2018-10-05T14:10:55.662Z,95.07
2018-10-05T14:13:36.114Z,82.30
2018-10-05T14:16:19.255Z,96.37
2018-10-05T14:18:53.667Z,74.80
2018-10-05T14:21:26.782Z,83.03
2018-10-05T14:24:13.962Z,52.00
2018-10-05T14:26:52.100Z,36.63
2018-10-05T14:32:42.404Z,10.93
2018-10-05T14:35:29.670Z,13.27
2018-10-05T14:38:07.327Z,19.70
2018-10-05T14:40:43.308Z,19.30
2018-10-05T14:43:17.877Z,23.17
2018-10-05T14:45:51.263Z,21.10
2018-10-05T14:48:33.071Z,33.27
2018-10-05T14:51:07.748Z,40.83
2018-10-05T14:53:41.023Z,13.57
2018-10-05T14:56:22.064Z,17.93
2018-10-05T14:58:55.386Z,11.60
2018-10-05T15:01:30.321Z,21.67
2018-10-05T15:04:06.364Z,3.93
2018-10-05T15:06:44.473Z,5.20
2018-10-05T15:09:18.071Z,7.47
2018-10-05T15:11:55.713Z,7.03
2018-10-05T15:17:09.376Z,7.27
2018-10-05T15:19:42.588Z,5.80
2018-10-05T15:22:17.439Z,11.83
2018-10-05T15:24:52.073Z,13.30
2018-10-05T15:27:27.536Z,5.73
2018-10-05T15:30:07.179Z,6.43
2018-10-05T15:32:51.364Z,13.23
2018-10-05T15:35:43.344Z,13.22
2018-10-05T15:38:18.907Z,5.00
2018-10-05T15:40:51.788Z,9.10
2018-10-05T15:43:25.840Z,6.40
2018-10-05T15:46:12.477Z,6.00
2018-10-05T15:48:45.522Z,5.90
2018-10-05T15:51:19.514Z,5.70
2018-10-05T15:53:53.468Z,5.27
2018-10-05T15:56:27.490Z,8.63
2018-10-05T15:59:03.275Z,7.30
2018-10-05T16:01:44.656Z,6.00
2018-10-05T16:07:17.183Z,3.80
2018-10-05T16:09:56.270Z,4.77
2018-10-05T16:12:33.921Z,9.23
2018-10-05T16:15:07.058Z,3.00
2018-10-05T16:17:40.526Z,4.67
2018-10-05T16:20:28.180Z,3.70
2018-10-05T16:26:01.220Z,5.00
2018-10-05T16:31:34.304Z,6.08
2018-10-05T16:34:06.937Z,4.47
2018-10-05T16:36:39.732Z,3.00
2018-10-05T16:39:14.850Z,3.47
2018-10-05T16:41:47.532Z,5.93
2018-10-05T16:44:31.663Z,4.00
2018-10-05T16:47:06.519Z,4.23
2018-10-05T16:49:40.627Z,5.80
2018-10-05T16:55:12.248Z,4.27
2018-10-05T16:57:45.451Z,3.10
2018-10-05T17:00:24.631Z,2.60
2018-10-05T17:02:57.325Z,9.60
2018-10-05T17:05:32.488Z,3.20
2018-10-05T17:08:07.854Z,5.40
2018-10-05T17:13:37.767Z,5.37
2018-10-05T17:16:29.418Z,3.80
2018-10-05T17:19:08.140Z,8.30
2018-10-05T17:21:53.613Z,4.20
2018-10-05T17:24:26.885Z,4.63
2018-10-05T17:26:59.451Z,3.97
2018-10-05T17:32:25.831Z,3.60
2018-10-05T17:37:53.251Z,4.63
2018-10-05T17:40:30.032Z,4.90
2018-10-05T17:43:05.525Z,5.53
2018-10-05T17:51:25.414Z,4.23
2018-10-05T17:59:36.433Z,11.43
2018-10-05T18:02:10.035Z,4.20
2018-10-05T18:04:48.054Z,5.10
2018-10-05T18:07:21.558Z,5.10
2018-10-05T18:09:55.762Z,7.33
2018-10-05T18:15:19.297Z,5.37
2018-10-05T18:17:52.451Z,8.10
2018-10-05T18:20:35.386Z,4.93
2018-10-05T18:23:08.556Z,5.70
2018-10-05T18:25:44.364Z,5.73
2018-10-05T18:28:19.064Z,5.33
2018-10-05T18:33:53.696Z,5.77
2018-10-05T18:36:30.055Z,4.50
2018-10-05T18:39:05.900Z,13.27
2018-10-05T18:41:46.424Z,5.63
2018-10-05T18:44:26.704Z,5.10
2018-10-05T18:50:07.475Z,5.47
2018-10-05T18:57:26.522Z,5.40
2018-10-05T19:00:10.226Z,5.97
2018-10-05T19:04:53.377Z,8.10
2018-10-05T19:07:27.698Z,6.80
2018-10-05T19:10:00.837Z,5.20
2018-10-05T19:12:37.093Z,5.53
2018-10-05T19:15:15.839Z,7.57
2018-10-05T19:17:49.137Z,6.43
2018-10-05T19:20:24.590Z,3.67
2018-10-05T19:23:06.278Z,9.93
2018-10-05T19:25:40.770Z,8.17
2018-10-05T19:28:23.105Z,5.57
2018-10-05T19:30:59.779Z,7.58
2018-10-05T19:33:35.117Z,6.30
2018-10-05T19:36:19.896Z,4.10
2018-10-05T19:38:55.092Z,5.13
2018-10-05T19:41:29.227Z,10.00
2018-10-05T19:44:02.743Z,5.50
2018-10-05T19:46:38.204Z,7.33
2018-10-05T19:49:17.264Z,8.70
2018-10-05T19:51:52.115Z,4.33
2018-10-05T19:54:25.948Z,7.03
2018-10-05T19:57:00.723Z,5.17
2018-10-05T19:59:34.616Z,3.80
2018-10-05T20:02:11.184Z,7.40
2018-10-05T20:04:47.704Z,3.30
2018-10-05T20:07:20.732Z,6.10
2018-10-05T20:09:57.922Z,8.63
2018-10-05T20:12:31.261Z,6.33
2018-10-05T20:15:05.939Z,5.70
2018-10-05T20:17:41.865Z,8.03
2018-10-05T20:20:19.503Z,5.10
2018-10-05T20:22:56.605Z,5.20
2018-10-05T20:25:33.076Z,17.23
2018-10-05T20:28:12.920Z,5.13
2018-10-05T20:30:48.858Z,6.43
2018-10-05T20:33:25.915Z,7.30
2018-10-05T20:36:02.159Z,7.67
2018-10-05T20:38:44.256Z,11.93
2018-10-05T20:41:23.472Z,5.50
2018-10-05T20:44:02.025Z,8.30
2018-10-05T20:46:38.490Z,4.93
2018-10-05T20:49:15.138Z,10.20
2018-10-05T20:51:49.340Z,5.70
2018-10-05T20:54:22.659Z,5.83
2018-10-05T20:56:56.357Z,6.03
2018-10-05T20:59:29.833Z,4.87
2018-10-05T21:04:43.841Z,3.33
2018-10-05T21:07:17.938Z,6.67
2018-10-05T21:09:56.962Z,6.87
2018-10-05T21:12:40.940Z,6.40
2018-10-05T21:15:15.999Z,8.08
2018-10-05T21:17:49.756Z,4.87
2018-10-05T21:20:29.857Z,4.40
2018-10-05T21:23:05.515Z,5.72
2018-10-05T21:25:40.358Z,4.93
2018-10-05T21:28:15.946Z,4.30
2018-10-05T21:30:48.845Z,3.70
2018-10-05T21:33:26.422Z,3.90
2018-10-05T21:36:04.583Z,8.80
2018-10-05T21:38:41.097Z,4.50
2018-10-05T21:41:22.012Z,4.60
2018-10-05T21:44:01.021Z,6.72
2018-10-05T21:46:41.547Z,5.50
2018-10-05T21:49:17.359Z,9.17
2018-10-05T21:51:58.957Z,4.10
2018-10-05T21:54:32.640Z,5.27
2018-10-05T21:57:05.870Z,5.53
2018-10-05T22:00:42.628Z,3.10
2018-10-05T22:03:15.713Z,6.93
2018-10-05T22:05:49.543Z,8.03
2018-10-05T22:08:35.797Z,6.53
2018-10-05T22:11:09.077Z,10.30
2018-10-05T22:13:42.318Z,7.53
2018-10-05T22:16:22.919Z,7.60
2018-10-05T22:18:56.707Z,12.83
2018-10-05T22:21:33.526Z,9.90
2018-10-05T22:24:11.653Z,10.70
2018-10-05T22:26:45.869Z,9.27
2018-10-05T22:29:19.206Z,9.07
2018-10-05T22:31:52.816Z,8.37
2018-10-05T22:34:26.442Z,5.00
2018-10-05T22:37:00.192Z,5.70
2018-10-05T22:39:33.408Z,5.95
2018-10-05T22:42:07.024Z,6.37
2018-10-05T22:44:41.262Z,6.73
2018-10-05T22:47:15.088Z,7.20
2018-10-05T22:49:48.417Z,5.43
2018-10-05T22:52:23.284Z,5.50
2018-10-05T22:54:56.546Z,4.80
2018-10-05T22:57:36.698Z,7.60
2018-10-05T23:00:14.091Z,8.83
2018-10-05T23:02:50.706Z,18.73
2018-10-05T23:05:25.323Z,9.30
2018-10-05T23:07:59.839Z,16.00
2018-10-05T23:10:33.454Z,4.70
2018-10-05T23:13:07.285Z,7.73
2018-10-05T23:15:40.460Z,10.17
2018-10-05T23:18:17.803Z,10.57
2018-10-05T23:20:55.857Z,9.50
2018-10-05T23:23:28.971Z,9.93
2018-10-05T23:26:01.992Z,8.45
2018-10-05T23:28:34.926Z,11.70
2018-10-05T23:31:09.144Z,8.50
2018-10-05T23:33:44.015Z,10.53
2018-10-05T23:36:17.461Z,6.57
2018-10-05T23:38:54.491Z,10.30
2018-10-05T23:41:29.416Z,10.77
2018-10-05T23:44:08.296Z,10.43
2018-10-05T23:46:42.218Z,15.77
2018-10-05T23:49:16.199Z,17.37
2018-10-05T23:51:51.466Z,27.00
2018-10-05T23:54:35.598Z,30.83
2018-10-05T23:57:10.071Z,16.57
2018-10-05T23:59:49.392Z,10.72
